Time;durP1;ratioP1;P1;durP2;ratioP2;P2;SDS_P1;SDS_P2;PMS_P1;PMS_P2;Temp;Humidity;BMP_temperature;BMP_pressure;BME280_temperature;BME280_humidity;BME280_pressure;Samples;Min_cycle;Max_cycle;Signal;HPM_P1;HPM_P2
2022/01/26 00:06:28;;;;;;;202.65;58.00;;;;;;;4.05;74.78;103263.75;4980826;28;20041;-42
2022/01/26 00:08:53;;;;;;;192.93;55.63;;;;;;;4.05;75.15;103265.56;4995212;28;20030;-42
2022/01/26 00:11:19;;;;;;;209.00;60.88;;;;;;;4.00;74.93;103268.44;4994440;28;20394;-42
2022/01/26 00:13:44;;;;;;;193.35;58.47;;;;;;;4.09;74.65;103261.81;4994662;28;20038;-42
2022/01/26 00:16:25;;;;;;;197.48;56.33;;;;;;;4.08;73.38;103252.94;4994228;28;20113;-40
2022/01/26 00:18:53;;;;;;;196.52;57.65;;;;;;;3.95;73.60;103254.53;4992196;28;20510;-41
2022/01/26 00:21:32;;;;;;;197.07;60.30;;;;;;;3.79;75.28;103250.91;4993138;28;20038;-41
2022/01/26 00:24:23;;;;;;;192.25;56.03;;;;;;;3.90;75.59;103240.59;4992295;28;20462;-41
2022/01/26 00:29:22;;;;;;;204.75;57.53;;;;;;;3.91;74.51;103240.50;4975236;28;20064;-41
2022/01/26 00:40:24;;;;;;;195.80;56.10;;;;;;;3.58;76.18;103240.44;4983975;28;20053;-42
2022/01/26 00:42:53;;;;;;;204.55;58.33;;;;;;;3.70;75.75;103239.78;4994614;28;20035;-41
2022/01/26 00:45:22;;;;;;;211.85;60.13;;;;;;;3.73;75.65;103241.44;4959441;28;20484;-41
2022/01/26 00:47:48;;;;;;;216.55;61.15;;;;;;;3.67;75.87;103239.94;4975093;28;20475;-41
2022/01/26 00:50:15;;;;;;;209.13;58.13;;;;;;;3.72;75.66;103229.94;4973532;28;20027;-41
2022/01/26 00:52:43;;;;;;;206.60;60.15;;;;;;;3.84;75.35;103230.22;4982283;28;20045;-41
2022/01/26 00:55:13;;;;;;;212.65;60.45;;;;;;;3.89;75.79;103228.19;4994470;28;20316;-40
2022/01/26 00:57:39;;;;;;;209.07;59.17;;;;;;;3.83;75.59;103218.72;4994329;28;20463;-40
2022/01/26 01:00:08;;;;;;;219.15;61.65;;;;;;;3.74;75.86;103220.06;4992821;28;20068;-40
2022/01/26 01:02:33;;;;;;;213.30;59.67;;;;;;;3.70;76.11;103218.47;4982893;28;20053;-41
2022/01/26 01:05:02;;;;;;;207.07;58.15;;;;;;;3.77;75.82;103219.03;4992897;28;20409;-41
2022/01/26 01:07:32;;;;;;;217.90;61.53;;;;;;;3.78;75.84;103211.91;4994051;28;20176;-42
2022/01/26 01:09:59;;;;;;;206.23;58.28;;;;;;;3.62;75.40;103204.69;4994167;28;20030;-41
2022/01/26 01:12:24;;;;;;;206.88;57.00;;;;;;;3.57;76.02;103205.88;4992620;28;20034;-41
2022/01/26 01:14:49;;;;;;;214.25;59.80;;;;;;;3.66;75.94;103200.06;4993841;28;20374;-41
2022/01/26 01:17:23;;;;;;;195.13;56.05;;;;;;;3.52;76.78;103200.78;4993800;28;20027;-41
2022/01/26 01:20:08;;;;;;;200.45;55.53;;;;;;;3.60;76.50;103198.59;4993911;28;20033;-41
2022/01/26 01:30:36;;;;;;;201.00;57.38;;;;;;;3.46;76.75;103193.13;4972314;28;20478;-40
2022/01/26 01:33:10;;;;;;;209.05;59.10;;;;;;;3.55;76.67;103187.31;4993559;28;20121;-41
2022/01/26 01:35:39;;;;;;;216.68;60.90;;;;;;;3.53;77.24;103183.88;4993704;28;20037;-41
2022/01/26 01:38:15;;;;;;;204.50;57.17;;;;;;;3.43;77.72;103188.81;4992305;28;20042;-41
2022/01/26 01:40:45;;;;;;;202.48;57.45;;;;;;;3.59;77.23;103185.38;4993003;28;20031;-41
2022/01/26 01:43:11;;;;;;;204.70;58.72;;;;;;;3.55;76.65;103181.97;4993420;28;20089;-41
2022/01/26 01:45:42;;;;;;;210.90;60.72;;;;;;;3.53;76.87;103178.56;4992236;28;20026;-41
2022/01/26 01:48:08;;;;;;;209.63;59.70;;;;;;;3.44;78.25;103163.91;4993485;28;20045;-42
2022/01/26 01:50:40;;;;;;;211.57;58.80;;;;;;;3.38;78.00;103169.53;4993279;28;20022;-42
2022/01/26 01:53:05;;;;;;;222.82;62.65;;;;;;;3.38;77.71;103168.69;4993130;28;20023;-42
2022/01/26 01:55:32;;;;;;;197.70;57.63;;;;;;;3.45;78.09;103159.44;4993478;28;20484;-41
2022/01/26 01:57:59;;;;;;;209.70;60.05;;;;;;;3.55;77.74;103166.00;4991883;28;20042;-40
2022/01/26 02:00:25;;;;;;;216.40;61.00;;;;;;;3.54;77.42;103163.44;4975731;28;20038;-41
2022/01/26 02:02:51;;;;;;;218.57;60.88;;;;;;;3.50;78.17;103170.72;4993088;28;20050;-41
2022/01/26 02:05:16;;;;;;;214.25;59.70;;;;;;;3.50;78.71;103168.03;4993092;28;20084;-41
2022/01/26 02:07:41;;;;;;;207.68;60.72;;;;;;;3.62;77.45;103162.09;4992725;28;20034;-40
2022/01/26 02:10:08;;;;;;;213.38;61.10;;;;;;;3.48;78.40;103168.16;4990468;28;20092;-41
2022/01/26 02:12:37;;;;;;;222.70;58.83;;;;;;;3.45;78.95;103162.09;4990110;28;20022;-41
2022/01/26 02:15:09;;;;;;;;;;;;;;;3.47;78.77;103162.88;4993546;28;20468;-41
2022/01/26 02:55:32;;;;;;;227.15;60.05;;;;;;;3.26;81.78;103123.09;4996487;28;20045;-41
2022/01/26 03:00:49;;;;;;;233.52;64.07;;;;;;;3.21;81.88;103124.28;4980878;28;20055;-40
2022/01/26 03:03:22;;;;;;;244.23;64.78;;;;;;;3.17;82.19;103118.28;4976949;28;20443;-41
2022/01/26 03:05:54;;;;;;;238.85;63.40;;;;;;;3.13;82.56;103111.38;4975675;28;20035;-40
2022/01/26 03:08:29;;;;;;;241.48;67.53;;;;;;;3.12;82.10;103103.47;4976781;28;20091;-42
2022/01/26 03:10:57;;;;;;;231.20;62.38;;;;;;;3.08;83.11;103097.44;4975989;28;20035;-41
2022/01/26 03:13:27;;;;;;;;;;;;;;;3.08;82.57;103094.78;4995690;28;20104;-42
2022/01/26 03:15:58;;;;;;;234.77;63.03;;;;;;;3.13;82.74;103106.03;4996214;28;20268;-41
2022/01/26 03:20:58;;;;;;;249.32;65.18;;;;;;;3.14;83.58;103115.78;4995954;28;20073;-41
2022/01/26 03:36:32;;;;;;;241.02;61.70;;;;;;;3.23;84.56;103086.00;4992856;28;20077;-41
2022/01/26 03:39:04;;;;;;;229.45;60.05;;;;;;;3.17;85.01;103070.38;4995633;28;20419;-41
2022/01/26 03:41:38;;;;;;;234.13;61.30;;;;;;;3.24;85.17;103078.91;4995515;28;20023;-41
2022/01/26 03:44:04;;;;;;;225.13;62.88;;;;;;;3.29;85.04;103075.06;4994592;28;20038;-41
2022/01/26 03:46:30;;;;;;;223.35;60.17;;;;;;;3.32;84.83;103089.13;4995421;28;20033;-42
2022/01/26 03:48:56;;;;;;;232.80;61.28;;;;;;;3.26;85.06;103111.59;4994132;28;20035;-41
2022/01/26 03:51:21;;;;;;;232.13;59.88;;;;;;;3.28;85.22;103121.25;4995674;28;20029;-42
2022/01/26 03:53:47;;;;;;;231.10;59.20;;;;;;;3.32;85.35;103129.06;4995751;28;20031;-41
2022/01/26 03:56:12;;;;;;;222.50;57.78;;;;;;;3.36;85.85;103141.28;4994991;28;20399;-40
2022/01/26 03:58:37;;;;;;;238.02;59.22;;;;;;;3.38;85.50;103131.44;4994529;28;20316;-42
2022/01/26 04:01:03;;;;;;;228.48;59.53;;;;;;;3.40;85.80;103134.88;4994734;28;20525;-41
2022/01/26 04:03:28;;;;;;;222.95;58.35;;;;;;;3.43;85.78;103140.91;4993262;28;20026;-41
2022/01/26 04:05:53;;;;;;;232.85;60.17;;;;;;;3.41;86.25;103141.91;4994535;28;20030;-42
2022/01/26 04:08:27;;;;;;;218.73;57.95;;;;;;;3.42;85.61;103144.50;4994030;28;20026;-40
2022/01/26 04:13:18;;;;;;;214.13;56.05;;;;;;;3.53;85.62;103162.59;4994557;28;20379;-41
2022/01/26 04:15:44;;;;;;;218.57;56.38;;;;;;;3.53;85.99;103159.94;4994199;28;20069;-40
2022/01/26 04:18:14;;;;;;;210.80;57.33;;;;;;;3.57;86.18;103168.59;4994506;28;20088;-40
2022/01/26 04:20:43;;;;;;;229.75;59.13;;;;;;;3.66;86.48;103174.31;4994917;28;20479;-41
2022/01/26 04:25:48;;;;;;;168.20;48.57;;;;;;;3.81;85.83;103145.16;4992804;28;20046;-41
2022/01/26 04:28:20;;;;;;;158.90;45.63;;;;;;;3.81;86.14;103116.72;4993336;28;20690;-41
2022/01/26 04:30:45;;;;;;;134.68;41.15;;;;;;;3.82;85.66;103109.56;4994593;28;20030;-41
2022/01/26 04:33:11;;;;;;;137.88;41.17;;;;;;;3.85;85.36;103117.44;4994729;28;20053;-41
2022/01/26 04:35:41;;;;;;;147.35;41.78;;;;;;;3.83;85.56;103098.00;4994679;28;20023;-41
2022/01/26 04:38:24;;;;;;;142.25;43.83;;;;;;;3.80;85.09;103100.84;4993301;28;20402;-41
2022/01/26 04:41:15;;;;;;;134.52;40.40;;;;;;;3.82;84.96;103109.56;4994403;28;20367;-41
2022/01/26 04:43:39;;;;;;;133.20;40.55;;;;;;;3.81;84.91;103115.84;4994128;28;20121;-41
2022/01/26 04:46:05;;;;;;;145.55;43.38;;;;;;;3.84;84.55;103127.19;4994418;28;20061;-42
2022/01/26 04:48:31;;;;;;;143.32;42.20;;;;;;;3.83;84.76;103116.63;4992717;28;20037;-41
2022/01/26 04:50:56;;;;;;;125.65;41.72;;;;;;;3.86;84.77;103100.50;4993885;28;20026;-41
2022/01/26 04:53:22;;;;;;;135.68;42.38;;;;;;;3.86;84.50;103116.47;4993418;28;20348;-41
2022/01/26 04:55:47;;;;;;;139.55;43.58;;;;;;;3.78;83.92;103129.34;4994174;28;20026;-40
2022/01/26 04:58:12;;;;;;;143.10;44.00;;;;;;;3.73;83.75;103125.09;4994123;28;20386;-41
2022/01/26 05:00:38;;;;;;;131.13;41.92;;;;;;;3.74;83.27;103121.53;4992577;28;20125;-41
2022/01/26 05:03:04;;;;;;;134.05;39.75;;;;;;;3.72;82.95;103135.84;4992811;28;20046;-41
2022/01/26 05:05:29;;;;;;;140.95;43.67;;;;;;;3.69;82.93;103131.56;4994017;28;20435;-40
2022/01/26 05:07:54;;;;;;;146.88;42.53;;;;;;;3.65;82.11;103129.97;4993562;28;20026;-41
2022/01/26 05:10:20;;;;;;;137.10;42.13;;;;;;;3.60;82.45;103116.03;4993567;28;20033;-41
2022/01/26 05:12:45;;;;;;;134.10;41.58;;;;;;;3.56;82.48;103106.50;4994025;28;20085;-41
2022/01/26 05:15:11;;;;;;;142.93;42.88;;;;;;;3.56;81.67;103097.66;4993093;28;20026;-41
2022/01/26 05:17:38;;;;;;;132.73;41.63;;;;;;;3.54;82.06;103105.72;4992888;28;20033;-40
2022/01/26 05:20:09;;;;;;;143.93;44.15;;;;;;;3.55;82.31;103115.41;4983716;28;20019;-40
2022/01/26 05:22:35;;;;;;;152.98;47.22;;;;;;;3.50;81.71;103107.69;4994177;28;20092;-41
2022/01/26 05:25:00;;;;;;;148.60;45.05;;;;;;;3.48;82.43;103106.06;4993134;28;20437;-41
2022/01/26 05:27:26;;;;;;;149.52;45.20;;;;;;;3.47;81.86;103099.00;4993319;28;20030;-41
2022/01/26 05:29:51;;;;;;;147.82;43.83;;;;;;;3.48;82.45;103098.06;4993866;28;20109;-41
2022/01/26 05:32:17;;;;;;;150.18;45.97;;;;;;;3.49;82.25;103099.78;4993676;28;20161;-41
2022/01/26 05:34:42;;;;;;;152.35;48.13;;;;;;;3.47;82.32;103099.00;4993090;28;20113;-41
2022/01/26 05:37:07;;;;;;;160.20;49.03;;;;;;;3.40;82.33;103110.91;4993177;28;20047;-42
2022/01/26 05:39:33;;;;;;;154.10;48.00;;;;;;;3.41;82.34;103104.66;4993250;28;20030;-41
2022/01/26 05:42:03;;;;;;;160.93;48.47;;;;;;;3.41;82.59;103101.97;4993594;28;20391;-41
2022/01/26 05:44:28;;;;;;;158.55;46.30;;;;;;;3.48;82.47;103106.06;4993576;28;20026;-41
2022/01/26 05:46:54;;;;;;;163.90;48.92;;;;;;;3.49;82.36;103121.06;4993743;28;20558;-42
2022/01/26 05:49:19;;;;;;;161.77;47.78;;;;;;;3.45;82.09;103130.16;4993726;28;20212;-41
2022/01/26 05:51:47;;;;;;;165.90;48.05;;;;;;;3.42;82.94;103115.22;4991634;28;20451;-41
2022/01/26 05:54:13;;;;;;;;;;;;;;;3.41;83.08;103115.28;4993167;28;20129;-41
2022/01/26 05:56:39;;;;;;;155.60;48.70;;;;;;;3.45;82.53;103133.69;4992930;28;20076;-41
2022/01/26 05:59:04;;;;;;;158.32;47.72;;;;;;;3.51;82.20;103144.03;4992058;28;20026;-40
2022/01/26 06:01:30;;;;;;;163.57;47.15;;;;;;;3.48;82.10;103143.31;5004604;28;20358;-41
2022/01/26 06:03:55;;;;;;;161.60;46.92;;;;;;;3.47;82.68;103141.59;5001077;28;20041;-40
2022/01/26 06:06:21;;;;;;;157.90;47.15;;;;;;;3.47;82.46;103145.09;4991896;28;20034;-42
2022/01/26 06:08:46;;;;;;;149.82;44.72;;;;;;;3.43;82.49;103140.03;4984856;28;20030;-41
2022/01/26 06:11:12;;;;;;;161.40;49.00;;;;;;;3.40;82.69;103118.91;4982551;28;20658;-41
2022/01/26 06:13:37;;;;;;;156.23;48.65;;;;;;;3.38;82.66;103111.00;4992611;28;20042;-40
2022/01/26 06:16:03;;;;;;;148.80;45.80;;;;;;;3.38;82.66;103096.81;4992039;28;20030;-41
2022/01/26 06:18:28;;;;;;;143.57;43.45;;;;;;;3.39;82.20;103101.19;4991284;28;20034;-40
2022/01/26 06:20:55;;;;;;;150.00;45.67;;;;;;;3.36;81.99;103106.69;4990707;28;20031;-42
2022/01/26 06:23:24;;;;;;;143.32;43.03;;;;;;;3.32;82.86;103099.78;4992326;28;20169;-41
2022/01/26 06:25:51;;;;;;;143.40;42.92;;;;;;;3.23;83.04;103096.66;4992204;28;20101;-41
2022/01/26 06:28:16;;;;;;;141.90;42.65;;;;;;;3.22;82.35;103105.59;4992786;28;20027;-42
2022/01/26 06:30:45;;;;;;;151.40;42.67;;;;;;;3.08;83.02;103098.31;4992106;28;20044;-40
2022/01/26 06:33:10;;;;;;;133.23;42.50;;;;;;;3.11;82.72;103102.63;4990858;28;20121;-41
2022/01/26 06:35:36;;;;;;;142.63;41.70;;;;;;;3.09;82.83;103099.19;4987366;28;20157;-41
2022/01/26 06:38:03;;;;;;;146.73;41.50;;;;;;;3.09;82.56;103091.19;4987634;28;20078;-42
2022/01/26 06:40:28;;;;;;;143.27;42.35;;;;;;;3.11;82.93;103094.66;4970275;28;20053;-40
2022/01/26 06:43:01;;;;;;;145.13;44.60;;;;;;;3.08;83.38;103097.44;4967475;28;20477;-40
2022/01/26 06:45:31;;;;;;;132.15;41.92;;;;;;;3.07;83.16;103107.22;4990574;28;20030;-41
2022/01/26 06:48:39;;;;;;;141.85;42.75;;;;;;;3.16;83.17;103111.25;4989767;28;20105;-41
2022/01/26 06:51:00;;;;;;;135.65;42.22;;;;;;;3.22;82.47;103132.19;4988894;28;20077;-42
2022/01/26 06:53:26;;;;;;;146.95;41.97;;;;;;;3.27;83.24;103122.19;4990686;28;20027;-42
2022/01/26 06:55:51;;;;;;;146.07;43.70;;;;;;;3.34;82.79;103116.53;4991896;28;20058;-42
2022/01/26 06:58:17;;;;;;;131.20;41.70;;;;;;;3.35;82.68;103105.81;4990649;28;20180;-41
2022/01/26 07:00:43;;;;;;;134.95;40.58;;;;;;;3.36;82.19;103112.84;4991555;28;20417;-41
2022/01/26 07:03:08;;;;;;;123.85;38.97;;;;;;;3.32;82.42;103116.63;4992168;28;20045;-41
2022/01/26 07:05:33;;;;;;;128.30;38.13;;;;;;;3.28;82.16;103115.06;4989236;28;20030;-41
2022/01/26 07:07:59;;;;;;;126.28;37.33;;;;;;;3.26;82.58;103117.78;4991286;28;20030;-40
2022/01/26 07:10:24;;;;;;;125.40;38.65;;;;;;;3.30;82.17;103119.38;4991480;28;20042;-41
2022/01/26 07:12:49;;;;;;;124.60;37.80;;;;;;;3.35;82.11;103123.59;4990373;28;20041;-41
2022/01/26 07:23:47;;;;;;;116.93;37.25;;;;;;;3.61;81.69;103138.22;4988486;28;20487;-41
2022/01/26 07:26:13;;;;;;;114.07;34.70;;;;;;;3.58;81.59;103146.34;4991442;28;20034;-41
2022/01/26 07:28:39;;;;;;;123.95;36.80;;;;;;;3.57;81.83;103142.84;4992196;28;20030;-40
2022/01/26 07:31:05;;;;;;;120.85;33.50;;;;;;;3.59;82.03;103140.09;4991467;28;20505;-42
2022/01/26 07:33:32;;;;;;;123.25;35.80;;;;;;;3.60;81.65;103137.34;4992405;28;20113;-41
2022/01/26 07:35:58;;;;;;;120.15;35.95;;;;;;;3.62;82.19;103132.81;4985545;28;20034;-41
2022/01/26 07:38:25;;;;;;;115.78;35.00;;;;;;;3.64;81.54;103141.59;4989040;28;20087;-41
2022/01/26 07:40:51;;;;;;;111.78;33.13;;;;;;;3.68;81.56;103139.59;4987094;28;20022;-40
2022/01/26 07:43:16;;;;;;;114.10;35.42;;;;;;;3.70;81.41;103138.59;4993655;28;20033;-42
2022/01/26 07:45:42;;;;;;;113.30;34.85;;;;;;;3.76;82.03;103147.19;4992342;28;20053;-41
2022/01/26 07:48:07;;;;;;;115.20;35.15;;;;;;;3.73;81.40;103148.22;4992621;28;20038;-42
2022/01/26 07:50:33;;;;;;;112.30;33.15;;;;;;;3.77;81.44;103154.25;4991943;28;20067;-41
2022/01/26 07:53:00;;;;;;;106.65;34.40;;;;;;;3.80;82.03;103143.44;4993198;28;20080;-41
2022/01/26 07:55:25;;;;;;;108.43;33.20;;;;;;;3.83;81.61;103153.94;4988923;28;20739;-42
2022/01/26 07:57:51;;;;;;;105.90;33.53;;;;;;;3.80;82.26;103159.44;4993273;28;20027;-40
2022/01/26 08:00:19;;;;;;;113.30;32.33;;;;;;;3.79;81.94;103163.00;4992690;28;20467;-41
2022/01/26 08:02:45;;;;;;;111.97;33.35;;;;;;;3.75;81.53;103162.31;4992522;28;20038;-40
2022/01/26 08:05:11;;;;;;;107.18;31.88;;;;;;;3.73;82.71;103154.41;4993111;28;20034;-40
2022/01/26 08:07:37;;;;;;;113.72;33.30;;;;;;;3.70;82.76;103151.91;4993659;28;20490;-42
2022/01/26 08:10:04;;;;;;;109.53;32.83;;;;;;;3.77;82.37;103146.28;4993718;28;20117;-40
2022/01/26 08:12:29;;;;;;;117.35;31.67;;;;;;;3.81;83.14;103139.81;4994071;28;20053;-40
2022/01/26 08:14:55;;;;;;;114.05;30.92;;;;;;;3.79;82.77;103134.59;4993215;28;20502;-42
2022/01/26 08:17:20;;;;;;;113.53;32.70;;;;;;;3.80;83.57;103132.78;4993692;28;20026;-41
2022/01/26 08:19:46;;;;;;;109.07;33.58;;;;;;;3.84;83.76;103134.34;4993087;28;20092;-41
2022/01/26 08:22:18;;;;;;;113.65;32.58;;;;;;;3.83;83.55;103127.28;4990214;28;20033;-41
2022/01/26 08:24:43;;;;;;;115.97;34.30;;;;;;;3.88;84.01;103125.25;4976118;28;20030;-41
2022/01/26 08:27:12;;;;;;;116.40;34.47;;;;;;;3.86;83.69;103143.97;4993369;28;20173;-41
2022/01/26 08:29:47;;;;;;;107.90;33.78;;;;;;;3.88;84.54;103138.56;4991879;28;20458;-41
2022/01/26 08:32:13;;;;;;;124.03;34.60;;;;;;;3.91;84.05;103130.41;4992139;28;20085;-41
2022/01/26 08:34:46;;;;;;;110.15;33.03;;;;;;;3.93;83.51;103140.03;4993164;28;20042;-41
2022/01/26 08:37:12;;;;;;;111.50;33.83;;;;;;;3.99;83.79;103138.00;4993092;28;20234;-41
2022/01/26 08:39:37;;;;;;;116.55;35.95;;;;;;;4.01;83.34;103146.78;4992216;28;20045;-41
2022/01/26 08:42:05;;;;;;;110.72;33.80;;;;;;;4.04;83.57;103136.78;4988125;28;20109;-40
2022/01/26 08:44:31;;;;;;;;;;;;;;;4.07;82.52;103125.09;4984524;28;20061;-40
2022/01/26 08:46:56;;;;;;;91.10;30.00;;;;;;;4.07;81.98;103119.78;4992547;28;19949;-40
2022/01/26 08:49:22;;;;;;;87.45;28.70;;;;;;;4.08;81.03;103133.03;4986856;28;20062;-41
2022/01/26 08:51:49;;;;;;;81.25;28.35;;;;;;;4.12;80.59;103126.56;4990681;28;20045;-40
2022/01/26 08:54:14;;;;;;;87.35;30.33;;;;;;;4.13;80.90;103120.31;4992874;28;20466;-40
2022/01/26 08:56:40;;;;;;;93.07;31.02;;;;;;;4.17;80.77;103127.19;4992521;28;20029;-40
2022/01/26 08:59:05;;;;;;;92.55;30.30;;;;;;;4.20;80.46;103135.97;4992769;28;20122;-39
2022/01/26 09:01:30;;;;;;;97.22;31.50;;;;;;;4.23;80.36;103130.47;4990444;28;20027;-41
2022/01/26 09:03:56;;;;;;;96.45;31.23;;;;;;;4.27;80.24;103127.56;4991148;28;20026;-40
2022/01/26 09:06:21;;;;;;;93.38;29.67;;;;;;;4.24;80.61;103118.84;4991383;28;20041;-41
2022/01/26 09:08:51;;;;;;;92.85;30.40;;;;;;;4.26;80.23;103123.16;4989257;28;20035;-40
2022/01/26 09:11:21;;;;;;;85.95;30.45;;;;;;;4.27;79.78;103116.03;4991989;28;20030;-40
2022/01/26 09:13:51;;;;;;;89.32;29.85;;;;;;;4.31;80.59;103115.75;4991966;28;20176;-40
2022/01/26 09:16:18;;;;;;;86.07;29.05;;;;;;;4.32;80.10;103119.31;4992512;28;20516;-42
2022/01/26 09:18:51;;;;;;;77.85;27.45;;;;;;;4.36;79.78;103142.16;4991869;28;20027;-40
2022/01/26 09:21:17;;;;;;;82.20;29.02;;;;;;;4.42;79.74;103136.47;4992070;28;20035;-40
2022/01/26 09:23:43;;;;;;;74.10;28.20;;;;;;;4.47;79.45;103128.22;4990841;28;20026;-42
2022/01/26 09:26:08;;;;;;;87.32;31.33;;;;;;;4.50;79.64;103123.63;4991808;28;20402;-40
2022/01/26 09:28:34;;;;;;;82.65;28.00;;;;;;;4.50;79.13;103118.28;4991698;28;20062;-39
2022/01/26 09:30:59;;;;;;;82.30;27.83;;;;;;;4.56;78.78;103111.72;4992134;28;20029;-42
2022/01/26 09:33:24;;;;;;;76.93;28.95;;;;;;;4.60;78.95;103106.13;4990626;28;20435;-40
2022/01/26 09:35:50;;;;;;;85.20;28.70;;;;;;;4.64;78.80;103114.81;4991573;28;20061;-40
2022/01/26 09:38:16;;;;;;;84.85;28.05;;;;;;;4.70;79.55;103129.59;4991189;28;20475;-40
2022/01/26 09:40:42;;;;;;;89.03;27.95;;;;;;;4.74;79.17;103120.47;4990133;28;20092;-41
2022/01/26 09:43:08;;;;;;;87.57;30.13;;;;;;;4.76;79.19;103130.09;4991910;28;20124;-40
2022/01/26 09:45:36;;;;;;;87.38;28.60;;;;;;;4.78;79.99;103136.22;4989641;28;20062;-42
2022/01/26 09:48:03;;;;;;;79.90;28.10;;;;;;;4.83;79.42;103146.63;4991964;28;20122;-38
2022/01/26 09:50:28;;;;;;;79.05;27.63;;;;;;;4.84;79.07;103141.22;4991937;28;20172;-40
2022/01/26 09:52:55;;;;;;;77.03;27.13;;;;;;;4.86;78.92;103126.94;4992195;28;20114;-40
2022/01/26 09:55:21;;;;;;;77.00;28.80;;;;;;;4.87;79.01;103121.50;4992178;28;20110;-41
2022/01/26 09:57:46;;;;;;;81.25;27.10;;;;;;;4.88;79.26;103112.53;4990019;28;20505;-40
2022/01/26 10:00:12;;;;;;;75.55;26.88;;;;;;;4.91;79.36;103115.03;4991882;28;20042;-41
2022/01/26 10:02:39;;;;;;;76.10;28.38;;;;;;;4.98;79.16;103124.41;4990490;28;20056;-40
2022/01/26 10:05:08;;;;;;;80.07;30.08;;;;;;;4.99;79.08;103119.94;4991720;28;20105;-42
2022/01/26 10:15:34;;;;;;;69.88;24.88;;;;;;;5.14;78.35;103135.06;4991710;28;19932;-42
2022/01/26 10:18:16;;;;;;;70.07;25.38;;;;;;;5.22;78.57;103134.59;4991441;28;20113;-42
2022/01/26 10:20:47;;;;;;;67.32;24.70;;;;;;;5.29;77.67;103141.28;4989345;28;20487;-41
2022/01/26 10:23:18;;;;;;;72.13;26.95;;;;;;;5.31;77.53;103142.03;4991189;28;20498;-41
2022/01/26 10:25:47;;;;;;;61.72;22.58;;;;;;;5.30;77.51;103145.69;4990873;28;20041;-40
2022/01/26 10:28:14;;;;;;;72.78;27.50;;;;;;;5.34;77.57;103136.53;4990795;28;20077;-42
2022/01/26 10:30:45;;;;;;;66.13;23.40;;;;;;;5.38;76.98;103135.41;4990287;28;20034;-41
2022/01/26 10:33:11;;;;;;;71.93;24.70;;;;;;;5.39;77.15;103134.44;4986622;28;20343;-40
2022/01/26 10:35:36;;;;;;;65.93;23.55;;;;;;;5.43;77.14;103135.97;4988621;28;20491;-41
2022/01/26 10:38:03;;;;;;;72.00;24.58;;;;;;;5.41;77.15;103127.19;4991167;28;20050;-41
2022/01/26 10:40:29;;;;;;;66.15;23.52;;;;;;;5.49;77.24;103132.94;4985041;28;20355;-42
2022/01/26 10:43:06;;;;;;;67.68;25.05;;;;;;;5.57;77.04;103131.63;4991279;28;20026;-41
2022/01/26 10:45:44;;;;;;;68.68;23.60;;;;;;;5.58;76.86;103134.22;4990694;28;20038;-41
2022/01/26 10:48:18;;;;;;;62.15;22.88;;;;;;;5.63;76.93;103139.25;4989918;28;20038;-40
2022/01/26 10:50:58;;;;;;;83.35;23.23;;;;;;;5.71;76.29;103139.63;4990700;28;20034;-41
2022/01/26 10:53:26;;;;;;;70.85;23.55;;;;;;;5.70;76.99;103137.94;4991096;28;20080;-41
2022/01/26 10:55:51;;;;;;;67.38;23.33;;;;;;;5.70;76.76;103132.59;4989891;28;20034;-40
2022/01/26 10:58:17;;;;;;;66.05;23.02;;;;;;;5.74;77.06;103120.78;4989377;28;20038;-40
2022/01/26 11:00:44;;;;;;;73.93;24.70;;;;;;;5.80;76.33;103124.88;4990042;28;20026;-41
2022/01/26 11:03:09;;;;;;;63.58;22.95;;;;;;;5.87;76.52;103126.19;4989519;28;20038;-41
2022/01/26 11:05:35;;;;;;;65.70;22.75;;;;;;;5.85;75.91;103123.63;4990451;28;20026;-41
2022/01/26 11:08:01;;;;;;;69.68;24.00;;;;;;;5.87;76.17;103120.84;4973127;28;20439;-41
2022/01/26 11:10:38;;;;;;;66.63;22.30;;;;;;;5.88;76.10;103115.44;4991182;28;20042;-43
2022/01/26 11:13:05;;;;;;;67.00;23.02;;;;;;;5.89;76.57;103100.25;4991911;28;20482;-41
2022/01/26 11:15:31;;;;;;;68.03;22.13;;;;;;;5.97;76.44;103107.81;4994226;28;20038;-43
2022/01/26 11:18:09;;;;;;;66.72;22.15;;;;;;;5.93;76.26;103108.00;4994853;28;20037;-42
2022/01/26 11:20:45;;;;;;;64.38;21.17;;;;;;;6.00;75.85;103112.97;4993009;28;20027;-42
2022/01/26 11:23:10;;;;;;;66.85;21.35;;;;;;;5.96;75.65;103106.97;4993967;28;20124;-41
2022/01/26 11:25:44;;;;;;;62.92;21.88;;;;;;;5.97;75.83;103110.50;4994574;28;20058;-42
2022/01/26 11:28:18;;;;;;;70.20;21.02;;;;;;;6.01;75.84;103112.88;4994344;28;20031;-41
2022/01/26 11:30:44;;;;;;;58.45;21.20;;;;;;;6.04;76.24;103102.00;4993762;28;20030;-41
2022/01/26 11:33:20;;;;;;;60.58;22.17;;;;;;;6.12;76.11;103098.84;4994005;28;20041;-42
2022/01/26 11:35:48;;;;;;;63.75;21.17;;;;;;;6.14;75.38;103095.09;4993048;28;20120;-42
2022/01/26 11:38:40;;;;;;;58.90;21.98;;;;;;;6.20;75.97;103099.19;4992450;28;20026;-42
2022/01/26 11:46:59;;;;;;;51.60;19.90;;;;;;;6.25;75.85;103093.56;4992928;28;20277;-41
2022/01/26 11:49:38;;;;;;;63.97;23.42;;;;;;;6.30;76.08;103094.97;4993115;28;20466;-41
2022/01/26 11:52:05;;;;;;;52.83;21.10;;;;;;;6.35;76.00;103095.56;4985473;28;20112;-41
2022/01/26 11:54:51;;;;;;;57.17;21.58;;;;;;;6.30;75.38;103094.97;4993610;28;20118;-41
2022/01/26 11:57:19;;;;;;;69.93;21.90;;;;;;;6.32;75.75;103094.91;4993253;28;20113;-41
2022/01/26 11:59:58;;;;;;;60.03;19.83;;;;;;;6.27;75.92;103092.50;4991282;28;20062;-41
2022/01/26 12:02:36;;;;;;;53.50;20.00;;;;;;;6.18;76.12;103090.41;4988935;28;20038;-41
2022/01/26 12:05:09;;;;;;;60.70;20.33;;;;;;;6.21;76.11;103090.22;4987926;28;20769;-41
2022/01/26 12:07:35;;;;;;;57.60;19.88;;;;;;;6.23;76.50;103096.31;4990587;28;20037;-41
2022/01/26 12:10:03;;;;;;;61.05;21.52;;;;;;;6.26;76.81;103097.94;4972478;28;20394;-41
2022/01/26 12:12:29;;;;;;;50.67;19.13;;;;;;;6.29;76.81;103109.31;4987509;28;20038;-41
2022/01/26 12:15:04;;;;;;;69.55;20.63;;;;;;;6.35;76.67;103108.91;4983200;28;20109;-41
2022/01/26 12:17:34;;;;;;;68.82;18.70;;;;;;;6.34;76.81;103100.97;4989622;28;20026;-42
2022/01/26 12:34:38;;;;;;;54.22;18.67;;;;;;;6.21;77.26;103076.84;4989006;28;20057;-42
2022/01/26 12:37:12;;;;;;;58.25;19.30;;;;;;;6.19;76.74;103065.41;4984242;28;20038;-42
2022/01/26 12:45:05;;;;;;;53.97;18.77;;;;;;;6.21;77.26;103068.81;4990008;28;20058;-42
2022/01/26 12:47:31;;;;;;;54.65;18.73;;;;;;;6.21;77.14;103057.28;4988017;28;20037;-41
2022/01/26 12:49:57;;;;;;;53.63;19.00;;;;;;;6.23;77.30;103071.41;4987886;28;20041;-40
2022/01/26 12:52:23;;;;;;;60.08;19.95;;;;;;;6.26;77.88;103065.84;4987562;28;20026;-42
2022/01/26 12:54:48;;;;;;;69.72;19.77;;;;;;;6.30;77.63;103057.53;4986740;28;20513;-41
2022/01/26 12:57:13;;;;;;;59.85;19.75;;;;;;;6.26;78.18;103055.16;4990124;28;20148;-41
2022/01/26 12:59:39;;;;;;;67.00;20.15;;;;;;;6.26;77.95;103060.50;4970430;28;20077;-42
2022/01/26 13:02:05;;;;;;;53.40;19.52;;;;;;;6.28;77.88;103054.09;4992499;28;20057;-41
2022/01/26 13:04:30;;;;;;;56.50;19.70;;;;;;;6.28;77.31;103043.41;4988303;28;20034;-41
2022/01/26 13:06:55;;;;;;;54.33;18.70;;;;;;;6.25;77.69;103038.25;4990365;28;20031;-41
2022/01/26 13:09:26;;;;;;;58.58;20.17;;;;;;;6.26;77.38;103039.13;4989698;28;20061;-41
2022/01/26 13:11:54;;;;;;;60.47;20.20;;;;;;;6.18;77.79;103031.59;4986728;28;20458;-42
2022/01/26 13:14:31;;;;;;;58.10;20.13;;;;;;;6.17;77.93;103035.22;4984199;28;20140;-40
2022/01/26 13:25:34;;;;;;;64.43;18.90;;;;;;;6.18;78.41;103041.44;4987288;28;20104;-42
2022/01/26 13:28:24;;;;;;;64.25;20.08;;;;;;;6.10;78.20;103034.75;4986834;28;20505;-41
2022/01/26 13:36:37;;;;;;;65.75;18.40;;;;;;;5.97;78.71;103027.63;4983823;28;19969;-40
2022/01/26 13:57:37;;;;;;;68.35;22.70;;;;;;;6.00;79.60;103011.38;4983818;28;20503;-41
2022/01/26 13:59:57;;;;;;;;;;;;;;;5.97;79.74;103006.25;4989855;28;20510;-40